sensor_id;sensor_type;location;lat;lon;timestamp;P1;durP1;ratioP1;P2;durP2;ratioP2
46589;SDS011;32313;48.722;9.362;2022-12-18T00:02:05;124.87;;;70.27;;
46589;SDS011;32313;48.722;9.362;2022-12-18T00:04:31;118.77;;;69.40;;
46589;SDS011;32313;48.722;9.362;2022-12-18T00:06:57;125.27;;;70.00;;
46589;SDS011;32313;48.722;9.362;2022-12-18T00:09:23;126.47;;;69.67;;
46589;SDS011;32313;48.722;9.362;2022-12-18T00:11:49;113.53;;;67.10;;
46589;SDS011;32313;48.722;9.362;2022-12-18T00:14:15;117.70;;;69.07;;
46589;SDS011;32313;48.722;9.362;2022-12-18T00:16:42;120.30;;;69.10;;
46589;SDS011;32313;48.722;9.362;2022-12-18T00:19:10;139.33;;;74.70;;
46589;SDS011;32313;48.722;9.362;2022-12-18T00:21:40;112.73;;;69.70;;
46589;SDS011;32313;48.722;9.362;2022-12-18T00:24:07;144.70;;;77.53;;
46589;SDS011;32313;48.722;9.362;2022-12-18T00:26:34;125.20;;;72.93;;
46589;SDS011;32313;48.722;9.362;2022-12-18T00:29:12;139.33;;;73.63;;
46589;SDS011;32313;48.722;9.362;2022-12-18T00:31:42;128.40;;;69.30;;
46589;SDS011;32313;48.722;9.362;2022-12-18T00:34:09;147.50;;;82.10;;
46589;SDS011;32313;48.722;9.362;2022-12-18T00:36:39;130.40;;;72.57;;
46589;SDS011;32313;48.722;9.362;2022-12-18T00:39:05;142.23;;;73.87;;
46589;SDS011;32313;48.722;9.362;2022-12-18T00:41:31;124.70;;;72.60;;
46589;SDS011;32313;48.722;9.362;2022-12-18T00:44:17;121.30;;;66.73;;
46589;SDS011;32313;48.722;9.362;2022-12-18T00:46:44;122.70;;;67.90;;
46589;SDS011;32313;48.722;9.362;2022-12-18T00:49:14;127.73;;;69.43;;
46589;SDS011;32313;48.722;9.362;2022-12-18T00:51:41;149.33;;;78.60;;
46589;SDS011;32313;48.722;9.362;2022-12-18T00:54:07;116.83;;;72.20;;
46589;SDS011;32313;48.722;9.362;2022-12-18T00:56:34;123.17;;;72.40;;
46589;SDS011;32313;48.722;9.362;2022-12-18T00:59:01;119.63;;;68.47;;
46589;SDS011;32313;48.722;9.362;2022-12-18T01:01:27;118.37;;;71.10;;
46589;SDS011;32313;48.722;9.362;2022-12-18T01:03:53;115.70;;;69.90;;
46589;SDS011;32313;48.722;9.362;2022-12-18T01:06:21;106.00;;;65.77;;
46589;SDS011;32313;48.722;9.362;2022-12-18T01:08:47;126.20;;;71.50;;
46589;SDS011;32313;48.722;9.362;2022-12-18T01:11:14;130.00;;;74.67;;
46589;SDS011;32313;48.722;9.362;2022-12-18T01:13:42;129.30;;;71.43;;
46589;SDS011;32313;48.722;9.362;2022-12-18T01:16:10;119.47;;;67.77;;
46589;SDS011;32313;48.722;9.362;2022-12-18T01:18:37;112.10;;;66.17;;
46589;SDS011;32313;48.722;9.362;2022-12-18T01:21:09;112.90;;;63.53;;
46589;SDS011;32313;48.722;9.362;2022-12-18T01:23:37;111.07;;;65.10;;
46589;SDS011;32313;48.722;9.362;2022-12-18T01:26:10;116.20;;;64.47;;
46589;SDS011;32313;48.722;9.362;2022-12-18T01:28:38;116.13;;;67.17;;
46589;SDS011;32313;48.722;9.362;2022-12-18T01:31:15;112.10;;;67.07;;
46589;SDS011;32313;48.722;9.362;2022-12-18T01:33:49;109.67;;;66.03;;
46589;SDS011;32313;48.722;9.362;2022-12-18T01:36:16;98.37;;;60.60;;
46589;SDS011;32313;48.722;9.362;2022-12-18T01:38:42;114.73;;;63.00;;
46589;SDS011;32313;48.722;9.362;2022-12-18T01:41:08;102.23;;;63.77;;
46589;SDS011;32313;48.722;9.362;2022-12-18T01:46:08;100.30;;;59.63;;
46589;SDS011;32313;48.722;9.362;2022-12-18T01:48:34;90.40;;;60.53;;
46589;SDS011;32313;48.722;9.362;2022-12-18T01:51:00;93.70;;;61.40;;
46589;SDS011;32313;48.722;9.362;2022-12-18T01:53:26;100.63;;;63.70;;
46589;SDS011;32313;48.722;9.362;2022-12-18T01:55:53;92.03;;;54.90;;
46589;SDS011;32313;48.722;9.362;2022-12-18T01:58:23;100.70;;;59.73;;
46589;SDS011;32313;48.722;9.362;2022-12-18T02:01:01;104.00;;;63.67;;
46589;SDS011;32313;48.722;9.362;2022-12-18T02:03:27;103.37;;;60.57;;
46589;SDS011;32313;48.722;9.362;2022-12-18T02:06:01;122.63;;;65.87;;
46589;SDS011;32313;48.722;9.362;2022-12-18T02:14:55;105.07;;;61.87;;
46589;SDS011;32313;48.722;9.362;2022-12-18T02:18:16;110.63;;;65.97;;
46589;SDS011;32313;48.722;9.362;2022-12-18T02:20:36;100.83;;;60.93;;
46589;SDS011;32313;48.722;9.362;2022-12-18T02:29:23;96.40;;;60.50;;
46589;SDS011;32313;48.722;9.362;2022-12-18T02:31:31;110.30;;;64.27;;
46589;SDS011;32313;48.722;9.362;2022-12-18T02:34:03;96.60;;;63.60;;
46589;SDS011;32313;48.722;9.362;2022-12-18T02:36:36;88.97;;;57.00;;
46589;SDS011;32313;48.722;9.362;2022-12-18T02:39:06;106.50;;;62.53;;
46589;SDS011;32313;48.722;9.362;2022-12-18T02:41:35;97.10;;;59.03;;
46589;SDS011;32313;48.722;9.362;2022-12-18T02:44:06;96.17;;;60.63;;
46589;SDS011;32313;48.722;9.362;2022-12-18T02:57:19;87.47;;;57.03;;
46589;SDS011;32313;48.722;9.362;2022-12-18T03:02:35;94.93;;;57.33;;
46589;SDS011;32313;48.722;9.362;2022-12-18T03:10:27;82.00;;;55.80;;
46589;SDS011;32313;48.722;9.362;2022-12-18T03:13:16;80.90;;;56.00;;
46589;SDS011;32313;48.722;9.362;2022-12-18T03:15:54;83.97;;;55.90;;
46589;SDS011;32313;48.722;9.362;2022-12-18T03:18:23;77.83;;;55.10;;
46589;SDS011;32313;48.722;9.362;2022-12-18T03:21:12;84.83;;;56.70;;
46589;SDS011;32313;48.722;9.362;2022-12-18T03:23:40;86.77;;;56.77;;
46589;SDS011;32313;48.722;9.362;2022-12-18T03:26:14;71.93;;;51.00;;
46589;SDS011;32313;48.722;9.362;2022-12-18T03:28:46;83.67;;;56.07;;
46589;SDS011;32313;48.722;9.362;2022-12-18T03:31:22;81.73;;;55.93;;
46589;SDS011;32313;48.722;9.362;2022-12-18T03:33:57;79.60;;;55.33;;
46589;SDS011;32313;48.722;9.362;2022-12-18T03:36:36;74.20;;;56.30;;
46589;SDS011;32313;48.722;9.362;2022-12-18T03:39:01;87.13;;;58.17;;
46589;SDS011;32313;48.722;9.362;2022-12-18T03:41:32;75.17;;;52.33;;
46589;SDS011;32313;48.722;9.362;2022-12-18T03:44:54;84.53;;;57.33;;
46589;SDS011;32313;48.722;9.362;2022-12-18T03:47:25;83.83;;;57.03;;
46589;SDS011;32313;48.722;9.362;2022-12-18T03:50:14;80.57;;;58.23;;
46589;SDS011;32313;48.722;9.362;2022-12-18T03:52:55;78.20;;;54.37;;
46589;SDS011;32313;48.722;9.362;2022-12-18T03:55:40;76.73;;;53.00;;
46589;SDS011;32313;48.722;9.362;2022-12-18T03:58:07;80.03;;;56.03;;
46589;SDS011;32313;48.722;9.362;2022-12-18T04:00:49;74.50;;;54.37;;
46589;SDS011;32313;48.722;9.362;2022-12-18T04:03:19;72.43;;;54.47;;
46589;SDS011;32313;48.722;9.362;2022-12-18T04:05:47;78.70;;;57.13;;
46589;SDS011;32313;48.722;9.362;2022-12-18T04:08:20;75.00;;;55.53;;
46589;SDS011;32313;48.722;9.362;2022-12-18T04:10:56;79.57;;;58.00;;
46589;SDS011;32313;48.722;9.362;2022-12-18T04:13:23;69.47;;;56.50;;
46589;SDS011;32313;48.722;9.362;2022-12-18T04:15:50;87.20;;;58.47;;
46589;SDS011;32313;48.722;9.362;2022-12-18T04:18:18;80.53;;;56.57;;
46589;SDS011;32313;48.722;9.362;2022-12-18T04:20:45;76.90;;;54.70;;
46589;SDS011;32313;48.722;9.362;2022-12-18T04:23:11;72.40;;;54.07;;
46589;SDS011;32313;48.722;9.362;2022-12-18T04:25:37;74.30;;;55.87;;
46589;SDS011;32313;48.722;9.362;2022-12-18T04:28:07;65.20;;;48.43;;
46589;SDS011;32313;48.722;9.362;2022-12-18T04:30:34;72.93;;;54.57;;
46589;SDS011;32313;48.722;9.362;2022-12-18T04:33:00;73.00;;;54.40;;
46589;SDS011;32313;48.722;9.362;2022-12-18T04:35:27;89.13;;;60.53;;
46589;SDS011;32313;48.722;9.362;2022-12-18T04:37:53;64.07;;;50.57;;
46589;SDS011;32313;48.722;9.362;2022-12-18T04:40:19;77.90;;;57.53;;
46589;SDS011;32313;48.722;9.362;2022-12-18T04:42:46;81.63;;;55.20;;
46589;SDS011;32313;48.722;9.362;2022-12-18T04:45:12;84.67;;;58.27;;
46589;SDS011;32313;48.722;9.362;2022-12-18T04:47:38;81.23;;;55.93;;
46589;SDS011;32313;48.722;9.362;2022-12-18T04:50:04;67.93;;;55.57;;
46589;SDS011;32313;48.722;9.362;2022-12-18T04:52:33;65.73;;;54.37;;
46589;SDS011;32313;48.722;9.362;2022-12-18T04:54:59;72.30;;;54.47;;
46589;SDS011;32313;48.722;9.362;2022-12-18T04:57:24;73.17;;;55.90;;
46589;SDS011;32313;48.722;9.362;2022-12-18T04:59:51;81.73;;;59.23;;
46589;SDS011;32313;48.722;9.362;2022-12-18T05:02:16;72.83;;;55.37;;
46589;SDS011;32313;48.722;9.362;2022-12-18T05:04:42;74.87;;;57.70;;
46589;SDS011;32313;48.722;9.362;2022-12-18T05:07:08;66.87;;;52.40;;
46589;SDS011;32313;48.722;9.362;2022-12-18T05:09:33;68.80;;;57.47;;
46589;SDS011;32313;48.722;9.362;2022-12-18T05:11:59;63.50;;;54.87;;
46589;SDS011;32313;48.722;9.362;2022-12-18T05:14:25;61.03;;;49.60;;
46589;SDS011;32313;48.722;9.362;2022-12-18T05:16:52;68.70;;;53.63;;
46589;SDS011;32313;48.722;9.362;2022-12-18T05:19:18;68.27;;;56.13;;
46589;SDS011;32313;48.722;9.362;2022-12-18T05:21:44;72.73;;;56.53;;
46589;SDS011;32313;48.722;9.362;2022-12-18T05:24:09;68.03;;;56.20;;
46589;SDS011;32313;48.722;9.362;2022-12-18T05:26:35;67.30;;;54.80;;
46589;SDS011;32313;48.722;9.362;2022-12-18T05:29:01;70.43;;;52.97;;
46589;SDS011;32313;48.722;9.362;2022-12-18T05:31:26;74.73;;;58.03;;
46589;SDS011;32313;48.722;9.362;2022-12-18T05:33:52;72.03;;;57.10;;
46589;SDS011;32313;48.722;9.362;2022-12-18T05:36:19;76.23;;;60.00;;
46589;SDS011;32313;48.722;9.362;2022-12-18T05:38:45;78.77;;;57.53;;
46589;SDS011;32313;48.722;9.362;2022-12-18T05:41:10;68.03;;;55.67;;
46589;SDS011;32313;48.722;9.362;2022-12-18T05:43:37;69.20;;;57.30;;
46589;SDS011;32313;48.722;9.362;2022-12-18T05:46:07;69.53;;;55.83;;
46589;SDS011;32313;48.722;9.362;2022-12-18T05:48:38;70.63;;;57.33;;
46589;SDS011;32313;48.722;9.362;2022-12-18T05:51:08;68.73;;;56.83;;
46589;SDS011;32313;48.722;9.362;2022-12-18T05:53:35;61.93;;;55.17;;
46589;SDS011;32313;48.722;9.362;2022-12-18T05:56:03;73.80;;;54.70;;
46589;SDS011;32313;48.722;9.362;2022-12-18T05:58:30;68.67;;;55.80;;
46589;SDS011;32313;48.722;9.362;2022-12-18T06:00:57;65.87;;;54.37;;
46589;SDS011;32313;48.722;9.362;2022-12-18T06:03:23;73.13;;;56.70;;
46589;SDS011;32313;48.722;9.362;2022-12-18T06:05:49;72.97;;;56.40;;
46589;SDS011;32313;48.722;9.362;2022-12-18T06:08:15;71.07;;;57.27;;
46589;SDS011;32313;48.722;9.362;2022-12-18T06:10:41;66.37;;;52.70;;
46589;SDS011;32313;48.722;9.362;2022-12-18T06:13:07;62.03;;;53.53;;
46589;SDS011;32313;48.722;9.362;2022-12-18T06:15:33;71.20;;;61.70;;
46589;SDS011;32313;48.722;9.362;2022-12-18T06:18:02;60.37;;;53.73;;
46589;SDS011;32313;48.722;9.362;2022-12-18T06:20:31;54.93;;;49.00;;
46589;SDS011;32313;48.722;9.362;2022-12-18T06:22:57;68.33;;;55.07;;
46589;SDS011;32313;48.722;9.362;2022-12-18T06:25:22;73.70;;;57.13;;
46589;SDS011;32313;48.722;9.362;2022-12-18T06:27:48;62.47;;;54.30;;
46589;SDS011;32313;48.722;9.362;2022-12-18T06:30:14;65.40;;;54.60;;
46589;SDS011;32313;48.722;9.362;2022-12-18T06:32:40;66.40;;;51.33;;
46589;SDS011;32313;48.722;9.362;2022-12-18T06:35:06;62.60;;;53.00;;
46589;SDS011;32313;48.722;9.362;2022-12-18T06:37:31;66.47;;;54.97;;
46589;SDS011;32313;48.722;9.362;2022-12-18T06:39:57;81.73;;;60.43;;
46589;SDS011;32313;48.722;9.362;2022-12-18T06:42:23;66.10;;;57.00;;
46589;SDS011;32313;48.722;9.362;2022-12-18T06:44:50;82.33;;;58.17;;
46589;SDS011;32313;48.722;9.362;2022-12-18T06:47:15;64.80;;;57.20;;
46589;SDS011;32313;48.722;9.362;2022-12-18T06:49:41;75.17;;;57.33;;
46589;SDS011;32313;48.722;9.362;2022-12-18T06:52:07;75.43;;;55.20;;
46589;SDS011;32313;48.722;9.362;2022-12-18T06:54:33;69.10;;;56.40;;
46589;SDS011;32313;48.722;9.362;2022-12-18T06:56:59;71.90;;;58.50;;
46589;SDS011;32313;48.722;9.362;2022-12-18T06:59:25;65.67;;;54.13;;
46589;SDS011;32313;48.722;9.362;2022-12-18T07:01:51;74.17;;;56.30;;
46589;SDS011;32313;48.722;9.362;2022-12-18T07:04:16;70.00;;;57.53;;
46589;SDS011;32313;48.722;9.362;2022-12-18T07:06:42;63.00;;;55.37;;
46589;SDS011;32313;48.722;9.362;2022-12-18T07:09:08;67.00;;;56.60;;
46589;SDS011;32313;48.722;9.362;2022-12-18T07:11:34;67.67;;;58.03;;
46589;SDS011;32313;48.722;9.362;2022-12-18T07:14:00;74.97;;;57.87;;
46589;SDS011;32313;48.722;9.362;2022-12-18T07:16:25;69.87;;;58.87;;
46589;SDS011;32313;48.722;9.362;2022-12-18T07:18:56;65.83;;;56.83;;
46589;SDS011;32313;48.722;9.362;2022-12-18T07:21:22;59.37;;;52.50;;
46589;SDS011;32313;48.722;9.362;2022-12-18T07:23:49;70.40;;;57.93;;
46589;SDS011;32313;48.722;9.362;2022-12-18T07:26:15;64.60;;;54.47;;
46589;SDS011;32313;48.722;9.362;2022-12-18T07:28:43;61.07;;;51.37;;
46589;SDS011;32313;48.722;9.362;2022-12-18T07:31:10;68.30;;;54.00;;
46589;SDS011;32313;48.722;9.362;2022-12-18T07:33:38;78.47;;;58.13;;
46589;SDS011;32313;48.722;9.362;2022-12-18T07:36:04;75.93;;;60.43;;
46589;SDS011;32313;48.722;9.362;2022-12-18T07:38:32;72.30;;;60.03;;
46589;SDS011;32313;48.722;9.362;2022-12-18T07:41:02;74.27;;;60.40;;
46589;SDS011;32313;48.722;9.362;2022-12-18T07:43:35;74.43;;;57.37;;
46589;SDS011;32313;48.722;9.362;2022-12-18T07:46:01;66.87;;;59.77;;
46589;SDS011;32313;48.722;9.362;2022-12-18T07:48:28;68.47;;;54.37;;
46589;SDS011;32313;48.722;9.362;2022-12-18T07:50:57;67.77;;;55.90;;
46589;SDS011;32313;48.722;9.362;2022-12-18T07:53:24;57.73;;;51.47;;
46589;SDS011;32313;48.722;9.362;2022-12-18T07:55:54;61.53;;;54.80;;
46589;SDS011;32313;48.722;9.362;2022-12-18T07:58:24;73.77;;;61.70;;
46589;SDS011;32313;48.722;9.362;2022-12-18T08:00:50;75.50;;;61.67;;
46589;SDS011;32313;48.722;9.362;2022-12-18T08:03:17;87.67;;;68.33;;
46589;SDS011;32313;48.722;9.362;2022-12-18T08:05:43;81.43;;;59.23;;
46589;SDS011;32313;48.722;9.362;2022-12-18T08:08:09;69.73;;;56.20;;
46589;SDS011;32313;48.722;9.362;2022-12-18T08:10:37;79.30;;;57.13;;
46589;SDS011;32313;48.722;9.362;2022-12-18T08:13:03;71.13;;;58.70;;
46589;SDS011;32313;48.722;9.362;2022-12-18T08:15:28;66.37;;;55.43;;
46589;SDS011;32313;48.722;9.362;2022-12-18T08:17:57;66.47;;;59.00;;
46589;SDS011;32313;48.722;9.362;2022-12-18T08:20:23;70.30;;;58.47;;
46589;SDS011;32313;48.722;9.362;2022-12-18T08:22:48;78.13;;;55.13;;
46589;SDS011;32313;48.722;9.362;2022-12-18T08:25:14;67.40;;;54.90;;
46589;SDS011;32313;48.722;9.362;2022-12-18T08:27:40;67.80;;;55.37;;
46589;SDS011;32313;48.722;9.362;2022-12-18T08:30:06;75.67;;;60.83;;
46589;SDS011;32313;48.722;9.362;2022-12-18T08:32:32;76.17;;;60.27;;
46589;SDS011;32313;48.722;9.362;2022-12-18T08:34:58;80.40;;;60.27;;
46589;SDS011;32313;48.722;9.362;2022-12-18T08:37:24;71.03;;;59.70;;
46589;SDS011;32313;48.722;9.362;2022-12-18T08:39:50;72.67;;;56.80;;
46589;SDS011;32313;48.722;9.362;2022-12-18T08:42:15;71.63;;;60.60;;
46589;SDS011;32313;48.722;9.362;2022-12-18T08:45:00;73.50;;;58.07;;
46589;SDS011;32313;48.722;9.362;2022-12-18T08:47:26;74.10;;;54.23;;
46589;SDS011;32313;48.722;9.362;2022-12-18T08:49:52;63.13;;;53.90;;
46589;SDS011;32313;48.722;9.362;2022-12-18T08:52:17;73.10;;;54.37;;
46589;SDS011;32313;48.722;9.362;2022-12-18T08:54:43;66.80;;;52.97;;
46589;SDS011;32313;48.722;9.362;2022-12-18T08:57:09;66.70;;;52.40;;
46589;SDS011;32313;48.722;9.362;2022-12-18T08:59:35;71.60;;;52.37;;
46589;SDS011;32313;48.722;9.362;2022-12-18T09:02:00;54.33;;;47.10;;
46589;SDS011;32313;48.722;9.362;2022-12-18T09:04:26;66.47;;;52.27;;
46589;SDS011;32313;48.722;9.362;2022-12-18T09:06:54;56.60;;;47.17;;
46589;SDS011;32313;48.722;9.362;2022-12-18T09:09:20;59.53;;;46.63;;
46589;SDS011;32313;48.722;9.362;2022-12-18T09:11:46;67.47;;;51.47;;
46589;SDS011;32313;48.722;9.362;2022-12-18T09:14:12;62.10;;;47.67;;
46589;SDS011;32313;48.722;9.362;2022-12-18T09:16:38;66.67;;;50.67;;
46589;SDS011;32313;48.722;9.362;2022-12-18T09:19:04;64.83;;;51.20;;
46589;SDS011;32313;48.722;9.362;2022-12-18T09:21:31;62.37;;;48.37;;
46589;SDS011;32313;48.722;9.362;2022-12-18T09:23:58;65.77;;;48.20;;
46589;SDS011;32313;48.722;9.362;2022-12-18T09:26:25;61.20;;;48.43;;
46589;SDS011;32313;48.722;9.362;2022-12-18T09:28:51;64.77;;;48.20;;
46589;SDS011;32313;48.722;9.362;2022-12-18T09:31:18;66.40;;;50.90;;
46589;SDS011;32313;48.722;9.362;2022-12-18T09:33:45;67.53;;;47.53;;
46589;SDS011;32313;48.722;9.362;2022-12-18T09:36:12;63.13;;;47.50;;
46589;SDS011;32313;48.722;9.362;2022-12-18T09:38:40;60.90;;;46.87;;
46589;SDS011;32313;48.722;9.362;2022-12-18T09:46:59;55.17;;;42.77;;
46589;SDS011;32313;48.722;9.362;2022-12-18T09:49:37;54.83;;;42.47;;
46589;SDS011;32313;48.722;9.362;2022-12-18T09:52:27;63.37;;;45.43;;
46589;SDS011;32313;48.722;9.362;2022-12-18T09:57:58;53.40;;;42.27;;
46589;SDS011;32313;48.722;9.362;2022-12-18T10:00:32;54.77;;;42.83;;
46589;SDS011;32313;48.722;9.362;2022-12-18T10:02:59;56.67;;;42.67;;
46589;SDS011;32313;48.722;9.362;2022-12-18T10:05:32;53.47;;;41.17;;
46589;SDS011;32313;48.722;9.362;2022-12-18T10:10:32;58.40;;;44.37;;
46589;SDS011;32313;48.722;9.362;2022-12-18T10:21:21;57.43;;;41.60;;
46589;SDS011;32313;48.722;9.362;2022-12-18T10:27:16;54.73;;;43.43;;
46589;SDS011;32313;48.722;9.362;2022-12-18T10:29:46;55.97;;;45.43;;
46589;SDS011;32313;48.722;9.362;2022-12-18T10:32:19;57.17;;;43.77;;
46589;SDS011;32313;48.722;9.362;2022-12-18T10:34:48;60.17;;;44.07;;
46589;SDS011;32313;48.722;9.362;2022-12-18T10:37:19;52.03;;;40.90;;
46589;SDS011;32313;48.722;9.362;2022-12-18T10:39:51;58.27;;;43.17;;
46589;SDS011;32313;48.722;9.362;2022-12-18T10:42:36;58.20;;;44.80;;
46589;SDS011;32313;48.722;9.362;2022-12-18T10:45:23;67.83;;;48.53;;
46589;SDS011;32313;48.722;9.362;2022-12-18T10:47:48;52.70;;;40.00;;
46589;SDS011;32313;48.722;9.362;2022-12-18T10:50:34;56.27;;;43.50;;
46589;SDS011;32313;48.722;9.362;2022-12-18T10:53:03;57.23;;;42.83;;
46589;SDS011;32313;48.722;9.362;2022-12-18T10:55:31;52.47;;;42.47;;
46589;SDS011;32313;48.722;9.362;2022-12-18T10:58:42;58.80;;;43.63;;
46589;SDS011;32313;48.722;9.362;2022-12-18T11:06:24;64.57;;;49.07;;
46589;SDS011;32313;48.722;9.362;2022-12-18T11:08:58;84.93;;;58.47;;
46589;SDS011;32313;48.722;9.362;2022-12-18T11:11:25;72.60;;;54.93;;
46589;SDS011;32313;48.722;9.362;2022-12-18T11:13:59;60.70;;;47.97;;
46589;SDS011;32313;48.722;9.362;2022-12-18T11:16:33;53.07;;;42.43;;
46589;SDS011;32313;48.722;9.362;2022-12-18T11:21:54;53.20;;;42.40;;
46589;SDS011;32313;48.722;9.362;2022-12-18T11:24:31;52.67;;;42.57;;
46589;SDS011;32313;48.722;9.362;2022-12-18T11:27:00;53.63;;;43.03;;
46589;SDS011;32313;48.722;9.362;2022-12-18T11:29:34;54.13;;;43.13;;
46589;SDS011;32313;48.722;9.362;2022-12-18T11:34:39;60.77;;;45.07;;
46589;SDS011;32313;48.722;9.362;2022-12-18T11:37:09;60.47;;;46.27;;
46589;SDS011;32313;48.722;9.362;2022-12-18T11:40:01;53.40;;;41.07;;
46589;SDS011;32313;48.722;9.362;2022-12-18T11:50:16;48.63;;;40.80;;
46589;SDS011;32313;48.722;9.362;2022-12-18T11:52:44;52.00;;;41.37;;
46589;SDS011;32313;48.722;9.362;2022-12-18T11:55:11;61.00;;;44.57;;
46589;SDS011;32313;48.722;9.362;2022-12-18T12:00:22;57.43;;;42.53;;
46589;SDS011;32313;48.722;9.362;2022-12-18T12:08:24;58.00;;;45.03;;
46589;SDS011;32313;48.722;9.362;2022-12-18T12:11:20;54.83;;;42.80;;
46589;SDS011;32313;48.722;9.362;2022-12-18T12:16:28;50.50;;;40.90;;
46589;SDS011;32313;48.722;9.362;2022-12-18T12:38:55;55.03;;;42.03;;
46589;SDS011;32313;48.722;9.362;2022-12-18T12:41:25;55.63;;;42.10;;
46589;SDS011;32313;48.722;9.362;2022-12-18T12:44:19;58.50;;;45.23;;
46589;SDS011;32313;48.722;9.362;2022-12-18T12:46:49;55.03;;;40.73;;
46589;SDS011;32313;48.722;9.362;2022-12-18T12:49:25;52.50;;;38.37;;
46589;SDS011;32313;48.722;9.362;2022-12-18T12:51:58;52.10;;;39.90;;
46589;SDS011;32313;48.722;9.362;2022-12-18T12:54:31;55.10;;;42.10;;
46589;SDS011;32313;48.722;9.362;2022-12-18T13:02:20;55.23;;;41.47;;
46589;SDS011;32313;48.722;9.362;2022-12-18T13:05:19;58.30;;;41.60;;
46589;SDS011;32313;48.722;9.362;2022-12-18T13:08:00;54.57;;;43.33;;
46589;SDS011;32313;48.722;9.362;2022-12-18T13:18:20;59.33;;;41.53;;
46589;SDS011;32313;48.722;9.362;2022-12-18T13:25:45;57.60;;;40.63;;
46589;SDS011;32313;48.722;9.362;2022-12-18T13:28:12;54.20;;;39.33;;
46589;SDS011;32313;48.722;9.362;2022-12-18T13:30:56;54.93;;;43.07;;
46589;SDS011;32313;48.722;9.362;2022-12-18T13:35:53;57.97;;;43.57;;
46589;SDS011;32313;48.722;9.362;2022-12-18T13:43:56;58.20;;;44.63;;
46589;SDS011;32313;48.722;9.362;2022-12-18T13:46:45;55.23;;;42.47;;
46589;SDS011;32313;48.722;9.362;2022-12-18T13:51:42;59.80;;;45.23;;
46589;SDS011;32313;48.722;9.362;2022-12-18T13:59:53;54.03;;;42.60;;
46589;SDS011;32313;48.722;9.362;2022-12-18T14:02:21;66.57;;;46.97;;
46589;SDS011;32313;48.722;9.362;2022-12-18T14:04:52;61.07;;;43.83;;
46589;SDS011;32313;48.722;9.362;2022-12-18T14:07:20;61.87;;;44.27;;
46589;SDS011;32313;48.722;9.362;2022-12-18T14:09:52;57.93;;;43.33;;
46589;SDS011;32313;48.722;9.362;2022-12-18T14:12:26;50.83;;;38.57;;
46589;SDS011;32313;48.722;9.362;2022-12-18T14:17:50;54.73;;;41.17;;
46589;SDS011;32313;48.722;9.362;2022-12-18T14:20:22;54.87;;;41.97;;
46589;SDS011;32313;48.722;9.362;2022-12-18T14:22:49;52.20;;;40.83;;
46589;SDS011;32313;48.722;9.362;2022-12-18T14:25:19;49.37;;;38.30;;
46589;SDS011;32313;48.722;9.362;2022-12-18T14:27:49;49.87;;;36.90;;
46589;SDS011;32313;48.722;9.362;2022-12-18T14:30:38;52.60;;;38.73;;
46589;SDS011;32313;48.722;9.362;2022-12-18T14:35:37;56.33;;;39.93;;
46589;SDS011;32313;48.722;9.362;2022-12-18T14:38:47;54.73;;;39.50;;
46589;SDS011;32313;48.722;9.362;2022-12-18T14:41:15;57.97;;;41.03;;
46589;SDS011;32313;48.722;9.362;2022-12-18T14:43:42;54.07;;;38.97;;
46589;SDS011;32313;48.722;9.362;2022-12-18T14:52:05;55.77;;;41.27;;
46589;SDS011;32313;48.722;9.362;2022-12-18T14:54:45;58.03;;;41.87;;
46589;SDS011;32313;48.722;9.362;2022-12-18T14:59:48;64.67;;;44.07;;
46589;SDS011;32313;48.722;9.362;2022-12-18T15:02:21;67.33;;;45.60;;
46589;SDS011;32313;48.722;9.362;2022-12-18T15:05:16;63.50;;;43.43;;
46589;SDS011;32313;48.722;9.362;2022-12-18T15:08:01;59.63;;;43.63;;
46589;SDS011;32313;48.722;9.362;2022-12-18T15:10:31;65.50;;;45.43;;
46589;SDS011;32313;48.722;9.362;2022-12-18T15:15:43;71.23;;;48.00;;
46589;SDS011;32313;48.722;9.362;2022-12-18T15:25:46;72.07;;;49.30;;
46589;SDS011;32313;48.722;9.362;2022-12-18T15:28:34;70.10;;;49.13;;
46589;SDS011;32313;48.722;9.362;2022-12-18T15:33:36;67.50;;;46.50;;
46589;SDS011;32313;48.722;9.362;2022-12-18T15:36:04;69.77;;;50.87;;
46589;SDS011;32313;48.722;9.362;2022-12-18T15:38:34;71.80;;;50.07;;
46589;SDS011;32313;48.722;9.362;2022-12-18T15:41:01;70.60;;;48.13;;
46589;SDS011;32313;48.722;9.362;2022-12-18T15:43:30;71.50;;;48.40;;
46589;SDS011;32313;48.722;9.362;2022-12-18T15:46:12;69.07;;;49.03;;
46589;SDS011;32313;48.722;9.362;2022-12-18T15:48:47;76.53;;;51.13;;
46589;SDS011;32313;48.722;9.362;2022-12-18T15:53:55;65.97;;;47.67;;
46589;SDS011;32313;48.722;9.362;2022-12-18T15:56:23;74.23;;;49.90;;
46589;SDS011;32313;48.722;9.362;2022-12-18T15:59:12;71.73;;;52.73;;
46589;SDS011;32313;48.722;9.362;2022-12-18T16:01:43;81.40;;;54.17;;
46589;SDS011;32313;48.722;9.362;2022-12-18T16:04:12;74.90;;;51.90;;
46589;SDS011;32313;48.722;9.362;2022-12-18T16:06:39;72.97;;;52.80;;
46589;SDS011;32313;48.722;9.362;2022-12-18T16:09:06;80.97;;;54.97;;
46589;SDS011;32313;48.722;9.362;2022-12-18T16:11:32;75.53;;;53.67;;
46589;SDS011;32313;48.722;9.362;2022-12-18T16:16:45;79.17;;;51.73;;
46589;SDS011;32313;48.722;9.362;2022-12-18T16:19:12;78.23;;;54.70;;
46589;SDS011;32313;48.722;9.362;2022-12-18T16:21:37;74.33;;;53.80;;
46589;SDS011;32313;48.722;9.362;2022-12-18T16:24:04;76.70;;;53.30;;
46589;SDS011;32313;48.722;9.362;2022-12-18T16:26:32;83.10;;;54.27;;
46589;SDS011;32313;48.722;9.362;2022-12-18T16:28:58;90.47;;;58.63;;
46589;SDS011;32313;48.722;9.362;2022-12-18T16:31:24;86.53;;;58.60;;
46589;SDS011;32313;48.722;9.362;2022-12-18T16:33:49;76.43;;;53.67;;
46589;SDS011;32313;48.722;9.362;2022-12-18T16:36:39;75.63;;;53.63;;
46589;SDS011;32313;48.722;9.362;2022-12-18T16:39:05;79.13;;;54.43;;
46589;SDS011;32313;48.722;9.362;2022-12-18T16:41:31;83.70;;;55.33;;
46589;SDS011;32313;48.722;9.362;2022-12-18T16:43:57;82.70;;;54.63;;
46589;SDS011;32313;48.722;9.362;2022-12-18T16:46:23;82.90;;;55.03;;
46589;SDS011;32313;48.722;9.362;2022-12-18T16:48:48;75.50;;;54.17;;
46589;SDS011;32313;48.722;9.362;2022-12-18T16:51:14;81.60;;;53.93;;
46589;SDS011;32313;48.722;9.362;2022-12-18T16:53:40;76.10;;;52.57;;
46589;SDS011;32313;48.722;9.362;2022-12-18T16:56:06;84.17;;;53.80;;
46589;SDS011;32313;48.722;9.362;2022-12-18T16:58:31;73.10;;;53.23;;
46589;SDS011;32313;48.722;9.362;2022-12-18T17:00:58;77.60;;;52.33;;
46589;SDS011;32313;48.722;9.362;2022-12-18T17:03:24;72.07;;;51.50;;
46589;SDS011;32313;48.722;9.362;2022-12-18T17:05:51;83.17;;;53.77;;
46589;SDS011;32313;48.722;9.362;2022-12-18T17:08:17;78.73;;;54.80;;
46589;SDS011;32313;48.722;9.362;2022-12-18T17:10:43;76.30;;;51.17;;
46589;SDS011;32313;48.722;9.362;2022-12-18T17:13:08;74.07;;;51.57;;
46589;SDS011;32313;48.722;9.362;2022-12-18T17:15:34;69.53;;;50.87;;
46589;SDS011;32313;48.722;9.362;2022-12-18T17:18:00;70.37;;;51.90;;
46589;SDS011;32313;48.722;9.362;2022-12-18T17:20:26;72.53;;;50.10;;
46589;SDS011;32313;48.722;9.362;2022-12-18T17:22:52;65.97;;;47.53;;
46589;SDS011;32313;48.722;9.362;2022-12-18T17:25:18;68.33;;;47.73;;
46589;SDS011;32313;48.722;9.362;2022-12-18T17:27:43;68.43;;;47.37;;